createdAt,value
2022-12-26T00:00:48.764Z,44.70
2022-12-26T00:03:15.715Z,48.58
2022-12-26T00:05:42.607Z,50.92
2022-12-26T00:08:09.325Z,44.42
2022-12-26T00:10:36.060Z,47.33
2022-12-26T00:13:38.614Z,41.30
2022-12-26T00:15:49.711Z,50.00
2022-12-26T00:18:17.567Z,38.95
2022-12-26T00:20:44.368Z,48.10
2022-12-26T00:23:11.172Z,29.02
2022-12-26T00:25:37.915Z,36.08
2022-12-26T00:28:04.876Z,35.28
2022-12-26T00:30:31.855Z,44.72
2022-12-26T00:32:58.803Z,40.53
2022-12-26T00:35:25.551Z,41.05
2022-12-26T00:37:52.367Z,31.20
2022-12-26T00:40:19.241Z,38.08
2022-12-26T00:42:46.043Z,34.08
2022-12-26T00:45:12.847Z,40.05
2022-12-26T00:47:39.663Z,34.42
2022-12-26T00:50:13.097Z,36.42
2022-12-26T00:52:42.462Z,37.30
2022-12-26T00:55:10.695Z,45.78
2022-12-26T00:57:37.607Z,37.72
2022-12-26T01:00:05.593Z,28.27
2022-12-26T01:02:38.302Z,44.33
2022-12-26T01:05:10.034Z,52.10
2022-12-26T01:08:22.343Z,36.17
2022-12-26T01:10:26.920Z,42.20
2022-12-26T01:12:54.384Z,44.08
2022-12-26T01:15:21.140Z,48.53
2022-12-26T01:17:47.878Z,42.42
2022-12-26T01:20:14.933Z,47.47
2022-12-26T01:22:41.853Z,53.17
2022-12-26T01:25:10.711Z,56.05
2022-12-26T01:27:37.536Z,52.30
2022-12-26T01:30:05.387Z,58.97
2022-12-26T01:32:32.153Z,40.60
2022-12-26T01:34:58.981Z,39.13
2022-12-26T01:37:26.140Z,55.20
2022-12-26T01:39:53.016Z,28.83
2022-12-26T01:42:24.396Z,52.08
2022-12-26T01:45:05.971Z,37.08
2022-12-26T01:48:05.595Z,33.10
2022-12-26T01:51:00.962Z,51.03
2022-12-26T01:53:33.554Z,43.58
2022-12-26T01:56:14.949Z,40.35
2022-12-26T01:58:54.003Z,38.10
2022-12-26T02:01:28.799Z,37.40
2022-12-26T02:04:14.796Z,44.88
2022-12-26T02:06:42.813Z,45.35
2022-12-26T02:09:10.037Z,44.03
2022-12-26T02:11:44.759Z,42.17
2022-12-26T02:14:12.286Z,31.63
2022-12-26T02:16:40.997Z,34.53
2022-12-26T02:19:37.756Z,45.88
2022-12-26T02:22:22.323Z,50.70
2022-12-26T02:25:04.249Z,44.80
2022-12-26T02:27:56.583Z,45.40
2022-12-26T02:31:12.215Z,35.78
2022-12-26T02:34:18.333Z,43.50
2022-12-26T02:37:31.980Z,37.40
2022-12-26T02:40:56.306Z,45.90
2022-12-26T02:43:31.023Z,35.45
2022-12-26T02:46:16.013Z,54.97
2022-12-26T02:49:16.202Z,33.20
2022-12-26T02:52:04.827Z,44.67
2022-12-26T02:55:10.898Z,30.92
2022-12-26T02:58:17.303Z,34.53
2022-12-26T03:01:07.091Z,36.30
2022-12-26T03:03:57.905Z,34.33
2022-12-26T03:06:52.471Z,35.20
2022-12-26T03:09:45.796Z,30.23
2022-12-26T03:13:04.383Z,41.42
2022-12-26T03:15:57.504Z,31.80
2022-12-26T03:18:58.295Z,25.38
2022-12-26T03:21:22.496Z,35.20
2022-12-26T03:23:56.558Z,27.92
2022-12-26T03:26:43.692Z,28.50
2022-12-26T03:29:36.582Z,29.73
2022-12-26T03:32:08.765Z,29.80
2022-12-26T03:34:44.064Z,24.92
2022-12-26T03:37:55.274Z,27.65
2022-12-26T03:40:46.476Z,30.65
2022-12-26T03:47:18.138Z,20.17
2022-12-26T03:50:16.695Z,20.30
2022-12-26T03:53:48.573Z,22.95
2022-12-26T03:56:52.259Z,16.40
2022-12-26T03:59:59.531Z,23.77
2022-12-26T04:02:49.263Z,21.15
2022-12-26T04:05:37.365Z,16.00
2022-12-26T04:08:34.630Z,17.60
2022-12-26T04:11:22.803Z,15.98
2022-12-26T04:14:35.103Z,19.77
2022-12-26T04:18:00.748Z,13.18
2022-12-26T04:20:45.939Z,13.15
2022-12-26T04:23:51.576Z,12.02
2022-12-26T04:26:57.873Z,12.88
2022-12-26T04:29:43.572Z,14.52
2022-12-26T04:33:06.751Z,19.17
2022-12-26T04:36:13.351Z,12.13
2022-12-26T04:39:09.798Z,14.85
2022-12-26T04:41:57.981Z,12.88
2022-12-26T04:44:27.581Z,17.15
2022-12-26T04:46:57.025Z,12.00
2022-12-26T04:49:42.956Z,15.07
2022-12-26T04:52:13.682Z,11.35
2022-12-26T04:54:42.539Z,13.27
2022-12-26T04:57:10.627Z,13.00
2022-12-26T04:59:37.396Z,7.32
2022-12-26T05:02:22.908Z,12.75
2022-12-26T05:05:21.942Z,10.93
2022-12-26T05:08:07.412Z,8.27
2022-12-26T05:10:34.198Z,8.73
2022-12-26T05:13:00.938Z,9.45
2022-12-26T05:15:27.750Z,9.23
2022-12-26T05:18:12.985Z,13.50
2022-12-26T05:20:59.297Z,7.40
2022-12-26T05:23:46.996Z,12.60
2022-12-26T05:26:42.030Z,11.15
2022-12-26T05:29:09.226Z,9.32
2022-12-26T05:31:37.191Z,8.73
2022-12-26T05:34:06.476Z,12.07
2022-12-26T05:36:48.604Z,10.38
2022-12-26T05:39:15.866Z,7.57
2022-12-26T05:41:43.323Z,9.20
2022-12-26T05:44:10.879Z,10.20
2022-12-26T05:46:38.988Z,9.93
2022-12-26T05:49:06.748Z,8.88
2022-12-26T05:51:33.749Z,8.70
2022-12-26T05:54:01.655Z,12.27
2022-12-26T05:56:28.442Z,13.23
2022-12-26T05:58:57.939Z,11.10
2022-12-26T06:01:27.614Z,9.35
2022-12-26T06:03:57.915Z,13.00
2022-12-26T06:06:26.562Z,9.43
2022-12-26T06:08:56.130Z,9.52
2022-12-26T06:11:26.655Z,10.70
2022-12-26T06:13:54.895Z,9.43
2022-12-26T06:16:22.008Z,8.15
2022-12-26T06:18:49.631Z,10.60
2022-12-26T06:21:19.514Z,12.32
2022-12-26T06:23:47.463Z,12.23
2022-12-26T06:26:15.409Z,9.82
2022-12-26T06:28:44.242Z,10.75
2022-12-26T06:31:20.748Z,9.10
2022-12-26T06:33:55.711Z,9.93
2022-12-26T06:36:26.735Z,8.48
2022-12-26T06:38:54.901Z,10.98
2022-12-26T06:41:24.215Z,8.73
2022-12-26T06:43:51.909Z,11.23
2022-12-26T06:46:22.979Z,9.18
2022-12-26T06:48:50.120Z,10.55
2022-12-26T06:51:21.551Z,10.95
2022-12-26T06:53:50.231Z,7.22
2022-12-26T06:56:23.857Z,7.72
2022-12-26T06:58:59.807Z,10.48
2022-12-26T07:01:29.937Z,9.30
2022-12-26T07:03:57.695Z,7.65
2022-12-26T07:06:30.317Z,9.95
2022-12-26T07:09:07.189Z,8.63
2022-12-26T07:11:37.960Z,10.90
2022-12-26T07:14:05.914Z,8.95
2022-12-26T07:16:36.254Z,9.13
2022-12-26T07:19:04.244Z,13.27
2022-12-26T07:21:36.301Z,11.18
2022-12-26T07:24:08.940Z,11.30
2022-12-26T07:26:35.734Z,6.10
2022-12-26T07:29:02.565Z,6.95
2022-12-26T07:31:29.576Z,5.85
2022-12-26T07:33:57.123Z,8.38
2022-12-26T07:36:25.309Z,9.63
2022-12-26T07:38:52.436Z,7.38
2022-12-26T07:41:38.010Z,6.80
2022-12-26T07:44:06.188Z,8.73
2022-12-26T07:46:33.537Z,7.20
2022-12-26T07:49:00.446Z,8.95
2022-12-26T07:51:27.763Z,7.68
2022-12-26T07:53:54.556Z,10.35
2022-12-26T07:56:32.891Z,6.00
2022-12-26T07:59:00.172Z,6.95
2022-12-26T08:01:28.242Z,8.82
2022-12-26T08:03:55.209Z,6.18
2022-12-26T08:06:23.278Z,7.55
2022-12-26T08:08:51.814Z,7.68
2022-12-26T08:11:23.039Z,7.88
2022-12-26T08:13:51.212Z,5.75
2022-12-26T08:16:19.049Z,7.30
2022-12-26T08:18:45.937Z,10.70
2022-12-26T08:21:13.634Z,7.45
2022-12-26T08:23:40.494Z,7.15
2022-12-26T08:26:20.675Z,10.20
2022-12-26T08:28:47.571Z,6.05
2022-12-26T08:31:15.073Z,7.28
2022-12-26T08:33:42.542Z,8.60
2022-12-26T08:36:13.045Z,10.40
2022-12-26T08:38:41.106Z,7.10
2022-12-26T08:41:07.873Z,5.57
2022-12-26T08:44:10.056Z,10.52
2022-12-26T08:46:22.970Z,8.52
2022-12-26T08:48:51.931Z,5.10
2022-12-26T08:51:24.858Z,7.45
2022-12-26T08:53:54.847Z,5.55
2022-12-26T08:56:25.986Z,4.15
2022-12-26T08:58:53.808Z,4.28
2022-12-26T09:01:24.768Z,8.10
2022-12-26T09:03:58.541Z,8.75
2022-12-26T09:06:26.815Z,7.35
2022-12-26T09:08:53.967Z,7.32
2022-12-26T09:11:26.977Z,6.50
2022-12-26T09:13:55.941Z,6.63
2022-12-26T09:16:28.803Z,5.60
2022-12-26T09:19:01.389Z,6.03
2022-12-26T09:21:30.360Z,5.75
2022-12-26T09:24:00.734Z,4.72
2022-12-26T09:26:29.394Z,6.13
2022-12-26T09:28:58.063Z,5.28
2022-12-26T09:31:32.320Z,6.20
2022-12-26T09:34:03.581Z,7.97
2022-12-26T09:36:35.436Z,5.55
2022-12-26T09:39:02.253Z,4.18
2022-12-26T09:42:06.141Z,6.38
2022-12-26T09:45:00.038Z,6.55
2022-12-26T09:47:50.754Z,4.18
2022-12-26T09:50:31.788Z,7.90
2022-12-26T09:53:04.133Z,3.88
2022-12-26T09:55:56.157Z,5.63
2022-12-26T09:58:48.591Z,5.30
2022-12-26T10:01:23.713Z,5.85
2022-12-26T10:03:58.874Z,12.07
2022-12-26T10:06:30.201Z,5.43
2022-12-26T10:09:27.114Z,6.18
2022-12-26T10:12:02.321Z,7.88
2022-12-26T10:14:38.392Z,6.88
2022-12-26T10:17:22.822Z,9.48
2022-12-26T10:20:01.310Z,6.43
2022-12-26T10:22:57.677Z,6.93
2022-12-26T10:25:38.710Z,6.15
2022-12-26T10:28:16.049Z,6.45
2022-12-26T10:30:44.572Z,10.13
2022-12-26T10:33:30.561Z,8.32
2022-12-26T10:35:57.671Z,4.63
2022-12-26T10:38:36.170Z,3.45
2022-12-26T10:41:43.097Z,3.70
2022-12-26T10:44:13.080Z,5.82
2022-12-26T10:46:53.533Z,8.93
2022-12-26T10:49:24.623Z,7.13
2022-12-26T10:51:56.768Z,4.07
2022-12-26T10:54:23.861Z,10.90
2022-12-26T10:56:53.496Z,5.85
2022-12-26T10:59:29.530Z,11.85
2022-12-26T11:02:22.310Z,7.82
2022-12-26T11:05:27.441Z,6.72
2022-12-26T11:07:56.890Z,11.10
2022-12-26T11:13:02.061Z,7.28
2022-12-26T11:15:48.090Z,12.93
2022-12-26T11:18:48.485Z,6.82
2022-12-26T11:21:18.230Z,16.60
2022-12-26T11:23:52.390Z,13.57
2022-12-26T11:26:27.598Z,14.35
2022-12-26T11:29:26.027Z,12.45
2022-12-26T11:32:04.645Z,13.50
2022-12-26T11:34:46.040Z,15.35
2022-12-26T11:37:30.604Z,10.52
2022-12-26T11:39:58.715Z,10.88
2022-12-26T11:42:26.912Z,10.75
2022-12-26T11:44:57.007Z,8.98
2022-12-26T11:47:29.884Z,10.10
2022-12-26T11:50:21.500Z,8.68
2022-12-26T11:52:57.487Z,4.28
2022-12-26T11:55:27.187Z,12.00
2022-12-26T11:58:06.687Z,8.05
2022-12-26T12:00:43.325Z,6.32
2022-12-26T12:03:26.934Z,11.05
2022-12-26T12:06:00.626Z,8.93
2022-12-26T12:09:02.268Z,5.95
2022-12-26T12:11:50.048Z,11.40
2022-12-26T12:14:34.149Z,8.55
2022-12-26T12:17:43.357Z,12.75
2022-12-26T12:20:47.482Z,11.40
2022-12-26T12:23:47.358Z,6.35
2022-12-26T12:26:49.619Z,10.52
2022-12-26T12:29:44.039Z,9.98
2022-12-26T12:33:00.116Z,9.57
2022-12-26T12:35:54.181Z,9.05
2022-12-26T12:38:41.739Z,8.88
2022-12-26T12:41:34.359Z,8.88
2022-12-26T12:44:47.099Z,7.00
2022-12-26T12:47:50.419Z,13.15
2022-12-26T12:50:32.700Z,8.05
2022-12-26T12:53:37.034Z,6.30
2022-12-26T12:56:20.632Z,8.30
2022-12-26T12:59:09.005Z,13.27
2022-12-26T13:01:44.854Z,7.72
2022-12-26T13:04:25.170Z,7.55
2022-12-26T13:07:11.256Z,6.60
2022-12-26T13:10:01.973Z,4.85
2022-12-26T13:12:39.859Z,5.80
2022-12-26T13:15:33.602Z,7.00
2022-12-26T13:18:17.903Z,5.18
2022-12-26T13:20:53.916Z,5.80
2022-12-26T13:23:59.663Z,6.47
2022-12-26T13:26:41.298Z,7.13
2022-12-26T13:29:16.750Z,9.85
2022-12-26T13:31:45.333Z,6.43
2022-12-26T13:34:20.149Z,3.42
2022-12-26T13:36:53.529Z,9.82
2022-12-26T13:39:23.131Z,3.63
2022-12-26T13:42:16.548Z,11.07
2022-12-26T13:44:45.710Z,6.03
2022-12-26T13:47:36.620Z,4.82
2022-12-26T13:50:55.339Z,6.88
2022-12-26T13:53:25.774Z,6.75
2022-12-26T13:56:03.036Z,7.68
2022-12-26T13:58:58.783Z,5.18
2022-12-26T14:02:00.198Z,4.65
2022-12-26T14:05:11.632Z,4.25
2022-12-26T14:08:07.655Z,4.07
2022-12-26T14:11:15.468Z,2.85
2022-12-26T14:14:17.930Z,2.75
2022-12-26T14:16:56.394Z,2.35
2022-12-26T14:20:23.407Z,3.63
2022-12-26T14:23:18.285Z,2.40
2022-12-26T14:25:51.887Z,5.80
2022-12-26T14:28:35.324Z,1.58
2022-12-26T14:31:13.976Z,6.85
2022-12-26T14:36:45.095Z,2.28
2022-12-26T14:39:40.715Z,3.65
2022-12-26T14:42:25.928Z,4.38
2022-12-26T14:44:56.380Z,3.72
2022-12-26T14:47:41.826Z,4.78
2022-12-26T14:50:49.023Z,1.70
2022-12-26T14:53:24.766Z,4.75
2022-12-26T14:56:08.038Z,4.22
2022-12-26T14:59:26.273Z,3.47
2022-12-26T15:02:33.335Z,3.85
2022-12-26T15:05:08.072Z,5.50
2022-12-26T15:08:25.398Z,5.00
2022-12-26T15:11:51.359Z,7.35
2022-12-26T15:15:04.064Z,5.07
2022-12-26T15:18:13.617Z,3.22
2022-12-26T15:21:17.723Z,3.33
2022-12-26T15:24:17.865Z,6.45
2022-12-26T15:27:16.660Z,6.10
2022-12-26T15:30:10.906Z,6.68
2022-12-26T15:33:20.523Z,4.40
2022-12-26T15:36:03.375Z,6.25
2022-12-26T15:38:58.957Z,4.75
2022-12-26T15:44:21.222Z,11.77
2022-12-26T15:47:19.435Z,4.47
2022-12-26T15:50:03.069Z,4.88
2022-12-26T15:53:02.376Z,3.75
2022-12-26T15:56:07.287Z,5.72
2022-12-26T15:59:05.810Z,3.72
2022-12-26T16:01:39.641Z,4.60
2022-12-26T16:04:18.128Z,1.63
2022-12-26T16:07:08.403Z,7.00
2022-12-26T16:09:47.316Z,5.35
2022-12-26T16:12:29.680Z,4.70
2022-12-26T16:15:17.624Z,6.68
2022-12-26T16:17:46.563Z,5.43
2022-12-26T16:20:58.717Z,5.20
2022-12-26T16:23:29.767Z,6.70
2022-12-26T16:26:00.391Z,8.02
2022-12-26T16:28:46.082Z,8.93
2022-12-26T16:31:25.496Z,5.88
2022-12-26T16:33:57.053Z,6.80
2022-12-26T16:36:28.064Z,3.58
2022-12-26T16:38:56.522Z,6.97
2022-12-26T16:41:31.651Z,7.43
2022-12-26T16:44:39.389Z,3.38
2022-12-26T16:47:14.129Z,6.88
2022-12-26T16:49:43.571Z,9.43
2022-12-26T16:52:31.312Z,8.77
2022-12-26T16:54:58.082Z,6.50
2022-12-26T16:57:24.976Z,5.68
2022-12-26T16:59:59.189Z,4.28
2022-12-26T17:02:35.870Z,6.78
2022-12-26T17:05:38.063Z,12.00
2022-12-26T17:08:05.830Z,6.97
2022-12-26T17:10:37.783Z,5.45
2022-12-26T17:13:09.609Z,7.85
2022-12-26T17:15:51.833Z,6.75
2022-12-26T17:18:36.701Z,5.07
2022-12-26T17:21:30.337Z,11.25
2022-12-26T17:24:09.144Z,9.00
2022-12-26T17:26:42.581Z,4.22
2022-12-26T17:29:47.970Z,8.98
2022-12-26T17:32:26.925Z,9.00
2022-12-26T17:34:54.573Z,10.90
2022-12-26T17:37:28.084Z,8.18
2022-12-26T17:40:07.520Z,3.35
2022-12-26T17:42:46.693Z,7.20
2022-12-26T17:45:21.641Z,9.32
2022-12-26T17:47:52.604Z,10.57
2022-12-26T17:50:20.890Z,7.32
2022-12-26T17:52:48.424Z,6.50
2022-12-26T17:55:26.515Z,6.22
2022-12-26T17:57:53.565Z,7.22
2022-12-26T18:00:26.457Z,9.18
2022-12-26T18:02:54.401Z,10.60
2022-12-26T18:05:21.889Z,9.18
2022-12-26T18:07:51.941Z,6.15
2022-12-26T18:10:26.001Z,8.13
2022-12-26T18:12:53.127Z,9.45
2022-12-26T18:15:21.151Z,12.70
2022-12-26T18:17:50.461Z,9.73
2022-12-26T18:20:28.466Z,12.73
2022-12-26T18:22:56.824Z,11.65
2022-12-26T18:25:27.077Z,7.38
2022-12-26T18:27:53.911Z,12.63
2022-12-26T18:30:25.307Z,3.92
2022-12-26T18:32:53.912Z,9.52
2022-12-26T18:35:23.473Z,8.48
2022-12-26T18:37:53.814Z,7.80
2022-12-26T18:40:37.199Z,7.85
2022-12-26T18:43:07.047Z,8.85
2022-12-26T18:45:35.333Z,8.68
2022-12-26T18:48:02.523Z,9.48
2022-12-26T18:50:31.756Z,7.97
2022-12-26T18:52:59.135Z,8.68
2022-12-26T18:55:28.141Z,10.68
2022-12-26T18:57:55.573Z,12.30
2022-12-26T19:00:23.796Z,8.27
2022-12-26T19:02:52.659Z,6.20
2022-12-26T19:05:27.450Z,8.75
2022-12-26T19:07:55.073Z,8.40
2022-12-26T19:10:25.692Z,13.35
2022-12-26T19:12:53.522Z,8.88
2022-12-26T19:15:20.655Z,6.70
2022-12-26T19:17:47.515Z,6.63
2022-12-26T19:20:21.863Z,7.13
2022-12-26T19:22:50.208Z,7.38
2022-12-26T19:25:19.671Z,12.07
2022-12-26T19:27:48.085Z,6.85
2022-12-26T19:30:17.683Z,15.05
2022-12-26T19:32:45.368Z,11.32
2022-12-26T19:35:13.725Z,9.45
2022-12-26T19:37:41.120Z,10.45
2022-12-26T19:40:10.319Z,12.07
2022-12-26T19:42:38.388Z,9.02
2022-12-26T19:45:07.779Z,9.27
2022-12-26T19:47:34.980Z,7.72
2022-12-26T19:50:03.928Z,9.13
2022-12-26T19:52:30.840Z,9.45
2022-12-26T19:54:57.605Z,7.57
2022-12-26T19:57:24.474Z,7.35
2022-12-26T19:59:51.307Z,9.18
2022-12-26T20:02:18.341Z,10.23
2022-12-26T20:04:45.628Z,7.47
2022-12-26T20:07:12.533Z,11.48
2022-12-26T20:09:39.426Z,10.23
2022-12-26T20:12:06.647Z,7.97
2022-12-26T20:14:33.590Z,13.02
2022-12-26T20:17:06.284Z,16.92
2022-12-26T20:19:34.767Z,7.22
2022-12-26T20:22:01.608Z,11.05
2022-12-26T20:24:28.364Z,8.45
2022-12-26T20:26:55.184Z,11.38
2022-12-26T20:29:22.100Z,8.55
2022-12-26T20:31:49.618Z,9.93
2022-12-26T20:34:17.095Z,10.73
2022-12-26T20:36:44.206Z,10.48
2022-12-26T20:39:16.205Z,12.07
2022-12-26T20:41:43.493Z,8.30
2022-12-26T20:44:18.736Z,11.13
2022-12-26T20:46:46.727Z,9.63
2022-12-26T20:49:14.285Z,8.55
2022-12-26T20:51:44.167Z,7.63
2022-12-26T20:54:14.754Z,13.88
2022-12-26T20:56:42.978Z,7.35
2022-12-26T20:59:10.553Z,9.88
2022-12-26T21:01:39.778Z,9.07
2022-12-26T21:04:08.761Z,9.25
2022-12-26T21:06:38.226Z,9.60
2022-12-26T21:09:06.842Z,8.95
2022-12-26T21:11:38.311Z,7.00
2022-12-26T21:14:15.533Z,14.57
2022-12-26T21:16:54.017Z,12.82
2022-12-26T21:19:23.392Z,10.43
2022-12-26T21:21:53.674Z,15.93
2022-12-26T21:24:28.743Z,9.60
2022-12-26T21:26:56.421Z,7.93
2022-12-26T21:29:30.588Z,9.60
2022-12-26T21:31:58.776Z,9.23
2022-12-26T21:34:30.107Z,9.13
2022-12-26T21:37:16.937Z,14.82
2022-12-26T21:39:47.404Z,9.13
2022-12-26T21:42:14.463Z,4.60
2022-12-26T21:44:41.260Z,12.20
2022-12-26T21:47:08.315Z,11.77
2022-12-26T21:49:36.423Z,13.43
2022-12-26T21:52:05.882Z,8.07
2022-12-26T21:54:51.793Z,8.88
2022-12-26T21:57:19.415Z,10.02
2022-12-26T21:59:59.196Z,15.18
2022-12-26T22:02:51.885Z,10.82
2022-12-26T22:05:21.966Z,9.15
2022-12-26T22:07:54.557Z,9.70
2022-12-26T22:10:40.656Z,7.70
2022-12-26T22:13:07.612Z,12.02
2022-12-26T22:15:53.350Z,10.60
2022-12-26T22:18:20.262Z,8.73
2022-12-26T22:20:47.172Z,6.70
2022-12-26T22:23:14.775Z,13.48
2022-12-26T22:25:41.972Z,8.70
2022-12-26T22:28:08.845Z,11.63
2022-12-26T22:30:35.708Z,9.02
2022-12-26T22:33:02.515Z,17.00
2022-12-26T22:35:29.254Z,12.48
2022-12-26T22:37:56.052Z,13.02
2022-12-26T22:40:23.012Z,10.15
2022-12-26T22:42:49.819Z,14.27
2022-12-26T22:45:16.871Z,10.88
2022-12-26T22:47:43.570Z,11.52
2022-12-26T22:50:18.545Z,12.93
2022-12-26T22:52:45.524Z,9.40
2022-12-26T22:55:13.487Z,13.93
2022-12-26T22:57:41.812Z,8.77
2022-12-26T23:00:13.313Z,9.63
2022-12-26T23:02:40.688Z,11.05
2022-12-26T23:05:11.576Z,4.40
2022-12-26T23:07:39.101Z,9.20
2022-12-26T23:10:08.125Z,10.18
2022-12-26T23:12:44.686Z,8.90
2022-12-26T23:15:17.531Z,10.05
2022-12-26T23:18:10.168Z,11.45
2022-12-26T23:20:57.447Z,10.68
2022-12-26T23:23:25.309Z,15.82
2022-12-26T23:25:52.186Z,11.20
2022-12-26T23:28:37.611Z,10.02
2022-12-26T23:31:04.927Z,13.10
2022-12-26T23:33:32.669Z,13.15
2022-12-26T23:35:59.734Z,10.40
2022-12-26T23:38:26.797Z,10.77
2022-12-26T23:40:53.734Z,9.90
2022-12-26T23:43:21.023Z,7.00
2022-12-26T23:45:47.932Z,10.80
2022-12-26T23:48:15.155Z,12.18
2022-12-26T23:50:41.941Z,6.05
2022-12-26T23:53:08.907Z,9.70
2022-12-26T23:55:40.504Z,9.43
2022-12-26T23:58:07.805Z,9.77
